Terminal Aerodrome Forecast
Issued by NWS

Home | Current Version | Previous Version | Text Only | Print | Product List | Glossary On
Versions: 1 2 3 4 5 6 7 8 9 10 11 12 13 14 15 16 17
000
FTUS43 KDMX 022129 AAB
TAFOTM
TAF AMD
KOTM 022129Z 0221/0318 31008KT P6SM SCT025 OVC035
      TEMPO 0221/0224 BKN025
     FM030000 34003KT P6SM SCT013 OVC020
     FM031700 26003KT P6SM SCT020 OVC080=

USA.gov is the U.S. government's official web portal to all federal, state and local government web resources and services.